Bryte, California
Current Conditions -  °F | °C
As of 8:53 AM on Monday 22 Dec 2014 (Local Time) from KSAC Reporting Station
Overcast Overcast  
Wind Chill: 58°   Ceiling: 1000
Heat Index: 58°   Visibility: 10mi
Dew Point: 54°   Wind: 7mph
Humidity: 87%   Direction: 310°NW
Pressure: 30.29"   Gusts: NA
Location:  38.5921°N, 121.545°W
Report Text: KSAC 221653Z AUTO 31006KT 10SM OVC010 14/12 A3029 RMK AO2 SLP255 T01440122 TSNO
Loading
Personal Weather Stations






























Interactive Weather Map New forecast layout! Learn more

10-Day Weather Forecast

Advertisements
Track Severe Weather on mobile